sensor_id;sensor_type;location;lat;lon;timestamp;pressure;altitude;pressure_sealevel;temperature;humidity
69239;BME280;56349;51.816;-0.026;2023-04-28T00:00:41;100266.87;;;21.08;35.98
69239;BME280;56349;51.816;-0.026;2023-04-28T00:03:07;100261.48;;;21.29;36.05
69239;BME280;56349;51.816;-0.026;2023-04-28T00:05:32;100261.45;;;21.00;36.08
69239;BME280;56349;51.816;-0.026;2023-04-28T00:07:58;100257.73;;;20.96;36.12
69239;BME280;56349;51.816;-0.026;2023-04-28T00:10:24;100258.38;;;21.19;36.17
69239;BME280;56349;51.816;-0.026;2023-04-28T00:12:51;100257.91;;;21.15;36.21
69239;BME280;56349;51.816;-0.026;2023-04-28T00:15:15;100253.63;;;21.10;36.27
69239;BME280;56349;51.816;-0.026;2023-04-28T00:17:41;100248.11;;;21.05;36.32
69239;BME280;56349;51.816;-0.026;2023-04-28T00:20:08;100240.82;;;20.73;36.39
69239;BME280;56349;51.816;-0.026;2023-04-28T00:22:33;100236.31;;;20.95;36.45
69239;BME280;56349;51.816;-0.026;2023-04-28T00:24:59;100235.29;;;20.63;36.49
69239;BME280;56349;51.816;-0.026;2023-04-28T00:27:25;100233.66;;;20.85;36.54
69239;BME280;56349;51.816;-0.026;2023-04-28T00:29:51;100230.90;;;20.81;36.59
69239;BME280;56349;51.816;-0.026;2023-04-28T00:32:17;100226.80;;;20.77;36.63
69239;BME280;56349;51.816;-0.026;2023-04-28T00:34:43;100224.97;;;20.73;36.68
69239;BME280;56349;51.816;-0.026;2023-04-28T00:37:09;100219.98;;;20.72;36.70
69239;BME280;56349;51.816;-0.026;2023-04-28T00:39:35;100214.32;;;20.70;36.71
69239;BME280;56349;51.816;-0.026;2023-04-28T00:42:01;100214.60;;;20.67;36.74
69239;BME280;56349;51.816;-0.026;2023-04-28T00:44:27;100212.40;;;20.86;36.77
69239;BME280;56349;51.816;-0.026;2023-04-28T00:46:53;100212.85;;;20.59;36.84
69239;BME280;56349;51.816;-0.026;2023-04-28T00:49:19;100203.17;;;20.53;36.88
69239;BME280;56349;51.816;-0.026;2023-04-28T00:51:44;100202.35;;;20.72;36.93
69239;BME280;56349;51.816;-0.026;2023-04-28T00:54:12;100203.76;;;20.67;36.97
69239;BME280;56349;51.816;-0.026;2023-04-28T00:56:35;100202.82;;;20.43;37.00
69239;BME280;56349;51.816;-0.026;2023-04-28T00:59:00;100206.88;;;20.42;37.00
69239;BME280;56349;51.816;-0.026;2023-04-28T01:01:26;100207.63;;;20.40;37.02
69239;BME280;56349;51.816;-0.026;2023-04-28T01:03:52;100201.27;;;20.36;37.05
69239;BME280;56349;51.816;-0.026;2023-04-28T01:06:19;100196.96;;;20.32;37.09
69239;BME280;56349;51.816;-0.026;2023-04-28T01:08:47;100191.83;;;20.52;37.12
69239;BME280;56349;51.816;-0.026;2023-04-28T01:11:10;100185.51;;;20.27;37.15
69239;BME280;56349;51.816;-0.026;2023-04-28T01:13:36;100182.67;;;20.26;37.16
69239;BME280;56349;51.816;-0.026;2023-04-28T01:16:02;100188.34;;;20.23;37.18
69239;BME280;56349;51.816;-0.026;2023-04-28T01:18:30;100194.22;;;20.21;37.20
69239;BME280;56349;51.816;-0.026;2023-04-28T01:20:53;100197.43;;;20.41;37.22
69239;BME280;56349;51.816;-0.026;2023-04-28T01:23:19;100191.97;;;20.17;37.22
69239;BME280;56349;51.816;-0.026;2023-04-28T01:25:45;100184.97;;;20.59;37.23
69239;BME280;56349;51.816;-0.026;2023-04-28T01:28:11;100169.68;;;20.55;37.27
69239;BME280;56349;51.816;-0.026;2023-04-28T01:30:38;100183.38;;;20.52;37.30
69239;BME280;56349;51.816;-0.026;2023-04-28T01:33:03;100188.03;;;20.04;37.34
69239;BME280;56349;51.816;-0.026;2023-04-28T01:35:28;100183.02;;;20.02;37.35
69239;BME280;56349;51.816;-0.026;2023-04-28T01:37:53;100181.02;;;20.23;37.37
69239;BME280;56349;51.816;-0.026;2023-04-28T01:40:20;100179.79;;;20.21;37.38
69239;BME280;56349;51.816;-0.026;2023-04-28T01:42:46;100182.33;;;19.98;37.39
69239;BME280;56349;51.816;-0.026;2023-04-28T01:45:12;100185.50;;;20.17;37.41
69239;BME280;56349;51.816;-0.026;2023-04-28T01:47:38;100177.00;;;20.15;37.40
69239;BME280;56349;51.816;-0.026;2023-04-28T01:50:05;100173.49;;;20.34;37.44
69239;BME280;56349;51.816;-0.026;2023-04-28T01:52:30;100171.98;;;20.31;37.46
69239;BME280;56349;51.816;-0.026;2023-04-28T01:54:54;100169.65;;;20.29;37.48
69239;BME280;56349;51.816;-0.026;2023-04-28T01:57:20;100163.94;;;20.07;37.48
69239;BME280;56349;51.816;-0.026;2023-04-28T01:59:46;100161.76;;;20.28;37.47
69239;BME280;56349;51.816;-0.026;2023-04-28T02:02:12;100161.13;;;20.05;37.47
69239;BME280;56349;51.816;-0.026;2023-04-28T02:04:39;100161.50;;;20.26;37.47
69239;BME280;56349;51.816;-0.026;2023-04-28T02:07:05;100159.19;;;20.24;37.49
69239;BME280;56349;51.816;-0.026;2023-04-28T02:09:30;100159.45;;;19.99;37.51
69239;BME280;56349;51.816;-0.026;2023-04-28T02:11:56;100158.91;;;20.18;37.54
69239;BME280;56349;51.816;-0.026;2023-04-28T02:14:23;100158.43;;;19.94;37.56
69239;BME280;56349;51.816;-0.026;2023-04-28T02:16:49;100155.97;;;20.16;37.55
69239;BME280;56349;51.816;-0.026;2023-04-28T02:19:15;100155.41;;;20.16;37.55
69239;BME280;56349;51.816;-0.026;2023-04-28T02:21:41;100158.78;;;20.15;37.55
69239;BME280;56349;51.816;-0.026;2023-04-28T02:24:07;100156.75;;;19.91;37.56
69239;BME280;56349;51.816;-0.026;2023-04-28T02:26:33;100163.49;;;20.12;37.57
69239;BME280;56349;51.816;-0.026;2023-04-28T02:28:59;100164.90;;;20.10;37.57
69239;BME280;56349;51.816;-0.026;2023-04-28T02:31:25;100163.87;;;20.08;37.58
69239;BME280;56349;51.816;-0.026;2023-04-28T02:33:51;100164.45;;;19.85;37.59
69239;BME280;56349;51.816;-0.026;2023-04-28T02:36:17;100161.00;;;19.84;37.58
69239;BME280;56349;51.816;-0.026;2023-04-28T02:38:42;100160.70;;;20.06;37.58
69239;BME280;56349;51.816;-0.026;2023-04-28T02:41:08;100157.24;;;20.06;37.57
69239;BME280;56349;51.816;-0.026;2023-04-28T02:43:35;100163.40;;;20.04;37.57
69239;BME280;56349;51.816;-0.026;2023-04-28T02:46:00;100155.29;;;19.78;37.60
69239;BME280;56349;51.816;-0.026;2023-04-28T02:48:26;100156.44;;;20.24;37.62
69239;BME280;56349;51.816;-0.026;2023-04-28T02:50:50;100155.30;;;19.73;37.63
69239;BME280;56349;51.816;-0.026;2023-04-28T02:53:16;100156.87;;;19.72;37.65
69239;BME280;56349;51.816;-0.026;2023-04-28T02:55:42;100158.29;;;19.94;37.63
69239;BME280;56349;51.816;-0.026;2023-04-28T02:58:08;100158.42;;;19.94;37.61
69239;BME280;56349;51.816;-0.026;2023-04-28T03:00:34;100160.94;;;19.92;37.62
69239;BME280;56349;51.816;-0.026;2023-04-28T03:03:00;100162.06;;;19.91;37.62
69239;BME280;56349;51.816;-0.026;2023-04-28T03:05:26;100161.87;;;19.68;37.62
69239;BME280;56349;51.816;-0.026;2023-04-28T03:07:51;100160.15;;;19.88;37.63
69239;BME280;56349;51.816;-0.026;2023-04-28T03:10:17;100156.65;;;19.64;37.64
69239;BME280;56349;51.816;-0.026;2023-04-28T03:12:43;100154.38;;;19.85;37.64
69239;BME280;56349;51.816;-0.026;2023-04-28T03:15:09;100151.83;;;19.62;37.64
69239;BME280;56349;51.816;-0.026;2023-04-28T03:17:34;100151.99;;;19.82;37.65
69239;BME280;56349;51.816;-0.026;2023-04-28T03:20:00;100149.02;;;19.79;37.66
69239;BME280;56349;51.816;-0.026;2023-04-28T03:22:26;100151.22;;;19.78;37.68
69239;BME280;56349;51.816;-0.026;2023-04-28T03:24:52;100150.12;;;19.77;37.68
69239;BME280;56349;51.816;-0.026;2023-04-28T03:27:18;100151.41;;;19.76;37.67
69239;BME280;56349;51.816;-0.026;2023-04-28T03:29:44;100152.19;;;19.76;37.70
69239;BME280;56349;51.816;-0.026;2023-04-28T03:32:10;100153.48;;;19.56;37.79
69239;BME280;56349;51.816;-0.026;2023-04-28T03:34:36;100154.69;;;19.87;37.86
69239;BME280;56349;51.816;-0.026;2023-04-28T03:37:02;100156.76;;;19.80;37.83
69239;BME280;56349;51.816;-0.026;2023-04-28T03:39:28;100156.93;;;19.75;37.74
69239;BME280;56349;51.816;-0.026;2023-04-28T03:41:54;100155.67;;;19.96;37.57
69239;BME280;56349;51.816;-0.026;2023-04-28T03:44:20;100156.14;;;20.21;37.31
69239;BME280;56349;51.816;-0.026;2023-04-28T03:46:45;100154.86;;;20.42;37.00
69239;BME280;56349;51.816;-0.026;2023-04-28T03:49:11;100156.98;;;20.58;36.72
69239;BME280;56349;51.816;-0.026;2023-04-28T03:51:37;100154.27;;;20.70;36.48
69239;BME280;56349;51.816;-0.026;2023-04-28T03:54:04;100151.10;;;20.77;36.29
69239;BME280;56349;51.816;-0.026;2023-04-28T03:56:28;100146.84;;;20.80;36.14
69239;BME280;56349;51.816;-0.026;2023-04-28T03:58:54;100146.22;;;20.81;36.03
69239;BME280;56349;51.816;-0.026;2023-04-28T04:01:20;100146.78;;;20.80;35.96
69239;BME280;56349;51.816;-0.026;2023-04-28T04:03:46;100148.69;;;20.80;35.87
69239;BME280;56349;51.816;-0.026;2023-04-28T04:06:12;100149.57;;;20.76;35.84
69239;BME280;56349;51.816;-0.026;2023-04-28T04:08:38;100152.69;;;20.70;35.83
69239;BME280;56349;51.816;-0.026;2023-04-28T04:11:03;100155.08;;;20.87;35.83
69239;BME280;56349;51.816;-0.026;2023-04-28T04:13:29;100156.81;;;20.58;35.86
69239;BME280;56349;51.816;-0.026;2023-04-28T04:15:55;100157.74;;;20.53;35.86
69239;BME280;56349;51.816;-0.026;2023-04-28T04:18:22;100161.48;;;20.46;35.90
69239;BME280;56349;51.816;-0.026;2023-04-28T04:20:47;100160.57;;;20.38;35.94
69239;BME280;56349;51.816;-0.026;2023-04-28T04:23:13;100162.05;;;20.54;35.98
69239;BME280;56349;51.816;-0.026;2023-04-28T04:25:39;100165.60;;;20.70;36.02
69239;BME280;56349;51.816;-0.026;2023-04-28T04:28:04;100162.89;;;20.38;36.08
69239;BME280;56349;51.816;-0.026;2023-04-28T04:30:30;100161.87;;;20.33;36.14
69239;BME280;56349;51.816;-0.026;2023-04-28T04:32:56;100164.28;;;20.27;36.18
69239;BME280;56349;51.816;-0.026;2023-04-28T04:35:22;100165.02;;;20.21;36.23
69239;BME280;56349;51.816;-0.026;2023-04-28T04:37:48;100167.64;;;19.94;36.26
69239;BME280;56349;51.816;-0.026;2023-04-28T04:40:14;100170.44;;;20.11;36.30
69239;BME280;56349;51.816;-0.026;2023-04-28T04:42:40;100168.23;;;20.06;36.34
69239;BME280;56349;51.816;-0.026;2023-04-28T04:45:07;100168.31;;;20.00;36.42
69239;BME280;56349;51.816;-0.026;2023-04-28T04:47:32;100170.15;;;20.18;36.46
69239;BME280;56349;51.816;-0.026;2023-04-28T04:49:58;100172.69;;;19.92;36.49
69239;BME280;56349;51.816;-0.026;2023-04-28T04:52:26;100172.83;;;20.09;36.54
69239;BME280;56349;51.816;-0.026;2023-04-28T04:54:50;100175.72;;;20.05;36.60
69239;BME280;56349;51.816;-0.026;2023-04-28T04:57:15;100178.22;;;20.05;36.70
69239;BME280;56349;51.816;-0.026;2023-04-28T04:59:41;100179.26;;;20.05;36.83
69239;BME280;56349;51.816;-0.026;2023-04-28T05:02:07;100178.77;;;20.05;36.98
69239;BME280;56349;51.816;-0.026;2023-04-28T05:04:32;100180.74;;;20.05;37.18
69239;BME280;56349;51.816;-0.026;2023-04-28T05:06:58;100178.93;;;20.05;37.40
69239;BME280;56349;51.816;-0.026;2023-04-28T05:09:24;100177.51;;;19.84;37.59
69239;BME280;56349;51.816;-0.026;2023-04-28T05:11:50;100179.30;;;20.10;37.77
69239;BME280;56349;51.816;-0.026;2023-04-28T05:14:16;100176.31;;;20.11;38.00
69239;BME280;56349;51.816;-0.026;2023-04-28T05:16:42;100178.16;;;19.71;38.20
69239;BME280;56349;51.816;-0.026;2023-04-28T05:19:07;100180.84;;;20.18;38.34
69239;BME280;56349;51.816;-0.026;2023-04-28T05:21:33;100181.52;;;20.23;38.47
69239;BME280;56349;51.816;-0.026;2023-04-28T05:23:59;100178.18;;;20.29;38.57
69239;BME280;56349;51.816;-0.026;2023-04-28T05:26:24;100180.21;;;19.93;38.63
69239;BME280;56349;51.816;-0.026;2023-04-28T05:28:50;100188.85;;;20.27;38.64
69239;BME280;56349;51.816;-0.026;2023-04-28T05:31:16;100195.01;;;20.10;38.70
69239;BME280;56349;51.816;-0.026;2023-04-28T05:33:42;100198.76;;;20.37;38.75
69239;BME280;56349;51.816;-0.026;2023-04-28T05:36:08;100204.89;;;20.66;38.79
69239;BME280;56349;51.816;-0.026;2023-04-28T05:38:33;100203.66;;;20.49;38.82
69239;BME280;56349;51.816;-0.026;2023-04-28T05:40:59;100208.10;;;20.34;38.80
69239;BME280;56349;51.816;-0.026;2023-04-28T05:43:23;100213.72;;;20.41;38.81
69239;BME280;56349;51.816;-0.026;2023-04-28T05:45:49;100216.31;;;20.47;38.82
69239;BME280;56349;51.816;-0.026;2023-04-28T05:48:15;100220.02;;;20.50;38.83
69239;BME280;56349;51.816;-0.026;2023-04-28T05:50:41;100222.02;;;20.55;38.86
69239;BME280;56349;51.816;-0.026;2023-04-28T05:53:07;100221.49;;;21.04;38.87
69239;BME280;56349;51.816;-0.026;2023-04-28T05:55:33;100220.99;;;20.65;38.87
69239;BME280;56349;51.816;-0.026;2023-04-28T05:57:58;100222.67;;;20.73;38.83
69239;BME280;56349;51.816;-0.026;2023-04-28T06:00:24;100224.63;;;21.01;38.80
69239;BME280;56349;51.816;-0.026;2023-04-28T06:02:51;100225.79;;;21.08;38.78
69239;BME280;56349;51.816;-0.026;2023-04-28T06:05:17;100229.28;;;20.93;38.74
69239;BME280;56349;51.816;-0.026;2023-04-28T06:07:43;100231.71;;;20.98;38.72
69239;BME280;56349;51.816;-0.026;2023-04-28T06:10:09;100231.29;;;21.01;38.70
69239;BME280;56349;51.816;-0.026;2023-04-28T06:12:34;100228.22;;;21.05;38.68
69239;BME280;56349;51.816;-0.026;2023-04-28T06:15:00;100235.47;;;21.08;38.67
69239;BME280;56349;51.816;-0.026;2023-04-28T06:17:26;100236.02;;;21.13;38.61
69239;BME280;56349;51.816;-0.026;2023-04-28T06:19:52;100233.42;;;20.91;38.53
69239;BME280;56349;51.816;-0.026;2023-04-28T06:22:18;100233.97;;;21.21;38.47
69239;BME280;56349;51.816;-0.026;2023-04-28T06:24:43;100235.75;;;21.25;38.36
69239;BME280;56349;51.816;-0.026;2023-04-28T06:27:09;100234.48;;;21.00;38.26
69239;BME280;56349;51.816;-0.026;2023-04-28T06:29:35;100237.32;;;21.01;38.18
69239;BME280;56349;51.816;-0.026;2023-04-28T06:32:01;100243.52;;;21.30;38.01
69239;BME280;56349;51.816;-0.026;2023-04-28T06:34:27;100244.77;;;21.32;37.88
69239;BME280;56349;51.816;-0.026;2023-04-28T06:36:53;100244.66;;;21.10;37.76
69239;BME280;56349;51.816;-0.026;2023-04-28T06:39:18;100244.75;;;21.42;37.79
69239;BME280;56349;51.816;-0.026;2023-04-28T06:41:44;100245.12;;;21.25;37.96
69239;BME280;56349;51.816;-0.026;2023-04-28T06:44:10;100244.78;;;21.43;37.83
69239;BME280;56349;51.816;-0.026;2023-04-28T06:46:36;100247.07;;;21.65;37.67
69239;BME280;56349;51.816;-0.026;2023-04-28T06:49:02;100251.85;;;21.71;37.61
69239;BME280;56349;51.816;-0.026;2023-04-28T06:51:28;100249.07;;;21.84;37.23
69239;BME280;56349;51.816;-0.026;2023-04-28T06:53:54;100251.90;;;22.21;37.00
69239;BME280;56349;51.816;-0.026;2023-04-28T06:56:20;100255.55;;;22.33;36.64
69239;BME280;56349;51.816;-0.026;2023-04-28T06:58:46;100254.34;;;22.71;36.26
69239;BME280;56349;51.816;-0.026;2023-04-28T07:01:12;100257.26;;;23.09;35.90
69239;BME280;56349;51.816;-0.026;2023-04-28T07:03:38;100259.75;;;23.47;35.50
69239;BME280;56349;51.816;-0.026;2023-04-28T07:06:04;100261.12;;;23.64;35.08
69239;BME280;56349;51.816;-0.026;2023-04-28T07:08:30;100259.10;;;23.73;34.67
69239;BME280;56349;51.816;-0.026;2023-04-28T07:10:54;100260.02;;;24.05;34.28
69239;BME280;56349;51.816;-0.026;2023-04-28T07:13:20;100259.17;;;24.37;33.91
69239;BME280;56349;51.816;-0.026;2023-04-28T07:15:47;100263.90;;;24.69;33.53
69239;BME280;56349;51.816;-0.026;2023-04-28T07:18:13;100263.08;;;24.76;33.16
69239;BME280;56349;51.816;-0.026;2023-04-28T07:20:38;100268.24;;;24.81;32.85
69239;BME280;56349;51.816;-0.026;2023-04-28T07:23:05;100266.71;;;25.03;32.55
69239;BME280;56349;51.816;-0.026;2023-04-28T07:25:30;100272.14;;;24.99;32.27
69239;BME280;56349;51.816;-0.026;2023-04-28T07:27:55;100269.43;;;25.21;31.99
69239;BME280;56349;51.816;-0.026;2023-04-28T07:30:21;100276.09;;;25.41;31.72
69239;BME280;56349;51.816;-0.026;2023-04-28T07:32:47;100277.66;;;25.59;31.48
69239;BME280;56349;51.816;-0.026;2023-04-28T07:35:13;100279.20;;;25.54;31.27
69239;BME280;56349;51.816;-0.026;2023-04-28T07:37:39;100279.27;;;25.71;31.04
69239;BME280;56349;51.816;-0.026;2023-04-28T07:40:06;100283.75;;;25.87;30.81
69239;BME280;56349;51.816;-0.026;2023-04-28T07:42:31;100284.53;;;26.03;30.61
69239;BME280;56349;51.816;-0.026;2023-04-28T07:44:57;100286.05;;;26.18;30.41
69239;BME280;56349;51.816;-0.026;2023-04-28T07:47:23;100286.34;;;26.09;30.23
69239;BME280;56349;51.816;-0.026;2023-04-28T07:49:49;100287.53;;;26.21;30.07
69239;BME280;56349;51.816;-0.026;2023-04-28T07:52:14;100286.62;;;26.06;29.94
69239;BME280;56349;51.816;-0.026;2023-04-28T07:54:39;100288.54;;;26.16;29.80
69239;BME280;56349;51.816;-0.026;2023-04-28T07:57:05;100291.71;;;26.27;29.65
69239;BME280;56349;51.816;-0.026;2023-04-28T07:59:32;100294.74;;;26.64;29.48
69239;BME280;56349;51.816;-0.026;2023-04-28T08:01:56;100296.83;;;26.48;29.34
69239;BME280;56349;51.816;-0.026;2023-04-28T08:04:22;100297.94;;;26.59;29.18
69239;BME280;56349;51.816;-0.026;2023-04-28T08:06:48;100300.96;;;26.68;29.05
69239;BME280;56349;51.816;-0.026;2023-04-28T08:09:14;100305.73;;;26.75;28.94
69239;BME280;56349;51.816;-0.026;2023-04-28T08:11:40;100311.61;;;26.82;28.85
69239;BME280;56349;51.816;-0.026;2023-04-28T08:14:06;100312.73;;;26.89;28.73
69239;BME280;56349;51.816;-0.026;2023-04-28T08:16:32;100310.46;;;26.98;28.64
69239;BME280;56349;51.816;-0.026;2023-04-28T08:18:58;100310.43;;;27.07;28.54
69239;BME280;56349;51.816;-0.026;2023-04-28T08:21:24;100312.56;;;27.09;28.48
69239;BME280;56349;51.816;-0.026;2023-04-28T08:23:50;100313.90;;;26.85;28.40
69239;BME280;56349;51.816;-0.026;2023-04-28T08:26:17;100317.69;;;26.98;28.39
69239;BME280;56349;51.816;-0.026;2023-04-28T08:28:42;100315.91;;;26.84;28.47
69239;BME280;56349;51.816;-0.026;2023-04-28T08:31:08;100317.35;;;26.67;28.64
69239;BME280;56349;51.816;-0.026;2023-04-28T08:33:33;100314.98;;;26.48;28.84
69239;BME280;56349;51.816;-0.026;2023-04-28T08:35:59;100321.67;;;26.26;29.09
69239;BME280;56349;51.816;-0.026;2023-04-28T08:38:26;100322.42;;;26.48;29.38
69239;BME280;56349;51.816;-0.026;2023-04-28T08:40:51;100323.81;;;26.00;29.67
69239;BME280;56349;51.816;-0.026;2023-04-28T08:43:20;100321.36;;;26.01;29.89
69239;BME280;56349;51.816;-0.026;2023-04-28T08:45:43;100323.67;;;26.00;30.13
69239;BME280;56349;51.816;-0.026;2023-04-28T08:48:16;100321.93;;;25.50;30.34
69239;BME280;56349;51.816;-0.026;2023-04-28T08:50:36;100321.28;;;25.44;30.41
69239;BME280;56349;51.816;-0.026;2023-04-28T08:53:03;100327.34;;;25.41;30.67
69239;BME280;56349;51.816;-0.026;2023-04-28T08:55:26;100324.36;;;25.15;30.96
69239;BME280;56349;51.816;-0.026;2023-04-28T08:57:52;100329.20;;;24.66;31.18
69239;BME280;56349;51.816;-0.026;2023-04-28T09:00:17;100333.27;;;24.75;31.41
69239;BME280;56349;51.816;-0.026;2023-04-28T09:02:43;100335.86;;;24.68;31.55
69239;BME280;56349;51.816;-0.026;2023-04-28T09:05:11;100339.49;;;24.70;31.64
69239;BME280;56349;51.816;-0.026;2023-04-28T09:07:35;100342.14;;;24.78;31.65
69239;BME280;56349;51.816;-0.026;2023-04-28T09:12:36;100345.09;;;24.83;31.49
69239;BME280;56349;51.816;-0.026;2023-04-28T09:34:20;100372.40;;;25.67;29.47
69239;BME280;56349;51.816;-0.026;2023-04-28T09:36:44;100370.71;;;25.84;29.29
69239;BME280;56349;51.816;-0.026;2023-04-28T09:39:10;100370.81;;;25.95;29.25
69239;BME280;56349;51.816;-0.026;2023-04-28T09:41:37;100375.20;;;26.39;29.15
69239;BME280;56349;51.816;-0.026;2023-04-28T09:46:28;100382.76;;;26.36;29.09
69239;BME280;56349;51.816;-0.026;2023-04-28T09:49:00;100385.01;;;26.71;29.09
69239;BME280;56349;51.816;-0.026;2023-04-28T09:51:20;100388.69;;;26.56;29.07
69239;BME280;56349;51.816;-0.026;2023-04-28T09:53:45;100391.43;;;26.46;28.97
69239;BME280;56349;51.816;-0.026;2023-04-28T09:56:11;100396.46;;;26.79;28.91
69239;BME280;56349;51.816;-0.026;2023-04-28T09:58:39;100396.35;;;26.65;28.84
69239;BME280;56349;51.816;-0.026;2023-04-28T10:01:02;100399.69;;;26.96;28.75
69239;BME280;56349;51.816;-0.026;2023-04-28T10:03:37;100401.13;;;26.82;28.66
69239;BME280;56349;51.816;-0.026;2023-04-28T10:05:53;100407.60;;;27.10;28.60
69239;BME280;56349;51.816;-0.026;2023-04-28T10:08:19;100404.52;;;27.01;28.47
69239;BME280;56349;51.816;-0.026;2023-04-28T10:10:44;100408.41;;;27.10;28.33
69239;BME280;56349;51.816;-0.026;2023-04-28T10:13:10;100409.55;;;27.16;28.28
69239;BME280;56349;51.816;-0.026;2023-04-28T10:15:35;100414.55;;;27.19;28.26
69239;BME280;56349;51.816;-0.026;2023-04-28T10:18:01;100418.90;;;27.21;28.26
69239;BME280;56349;51.816;-0.026;2023-04-28T10:20:29;100419.51;;;27.24;28.25
69239;BME280;56349;51.816;-0.026;2023-04-28T10:22:58;100423.79;;;27.28;28.25
69239;BME280;56349;51.816;-0.026;2023-04-28T10:25:26;100426.29;;;27.30;28.25
69239;BME280;56349;51.816;-0.026;2023-04-28T10:27:45;100428.02;;;27.36;28.20
69239;BME280;56349;51.816;-0.026;2023-04-28T10:30:11;100433.32;;;27.42;28.18
69239;BME280;56349;51.816;-0.026;2023-04-28T10:32:35;100433.98;;;27.52;28.08
69239;BME280;56349;51.816;-0.026;2023-04-28T10:44:43;100447.40;;;27.63;27.66
69239;BME280;56349;51.816;-0.026;2023-04-28T10:47:10;100447.84;;;27.46;27.59
69239;BME280;56349;51.816;-0.026;2023-04-28T10:52:00;100448.55;;;27.76;27.49
69239;BME280;56349;51.816;-0.026;2023-04-28T10:54:27;100450.95;;;27.82;27.41
69239;BME280;56349;51.816;-0.026;2023-04-28T10:59:25;100455.37;;;27.66;27.31
69239;BME280;56349;51.816;-0.026;2023-04-28T11:01:42;100460.55;;;27.64;27.31
69239;BME280;56349;51.816;-0.026;2023-04-28T11:04:08;100460.61;;;27.38;27.32
69239;BME280;56349;51.816;-0.026;2023-04-28T11:06:34;100459.49;;;27.57;27.32
69239;BME280;56349;51.816;-0.026;2023-04-28T11:11:25;100466.26;;;27.73;27.35
69239;BME280;56349;51.816;-0.026;2023-04-28T11:13:51;100466.47;;;27.74;27.28
69239;BME280;56349;51.816;-0.026;2023-04-28T11:16:19;100469.69;;;27.77;27.25
69239;BME280;56349;51.816;-0.026;2023-04-28T11:21:06;100470.13;;;27.76;27.29
69239;BME280;56349;51.816;-0.026;2023-04-28T11:23:32;100474.15;;;27.69;27.44
69239;BME280;56349;51.816;-0.026;2023-04-28T11:25:58;100472.98;;;27.63;27.54
69239;BME280;56349;51.816;-0.026;2023-04-28T11:28:24;100472.23;;;27.59;27.59
69239;BME280;56349;51.816;-0.026;2023-04-28T11:30:49;100470.41;;;27.63;27.65
69239;BME280;56349;51.816;-0.026;2023-04-28T11:33:15;100474.28;;;27.68;27.69
69239;BME280;56349;51.816;-0.026;2023-04-28T11:35:40;100482.70;;;27.72;27.71
69239;BME280;56349;51.816;-0.026;2023-04-28T11:38:06;100479.72;;;27.79;27.73
69239;BME280;56349;51.816;-0.026;2023-04-28T11:40:32;100482.73;;;27.84;27.76
69239;BME280;56349;51.816;-0.026;2023-04-28T11:42:59;100485.89;;;27.90;27.77
69239;BME280;56349;51.816;-0.026;2023-04-28T11:45:24;100483.55;;;27.99;27.76
69239;BME280;56349;51.816;-0.026;2023-04-28T11:47:49;100482.07;;;28.09;27.73
69239;BME280;56349;51.816;-0.026;2023-04-28T11:50:15;100481.49;;;27.98;27.70
69239;BME280;56349;51.816;-0.026;2023-04-28T11:52:47;100483.61;;;28.09;27.70
69239;BME280;56349;51.816;-0.026;2023-04-28T11:55:15;100479.46;;;28.42;27.69
69239;BME280;56349;51.816;-0.026;2023-04-28T11:57:32;100485.08;;;28.13;27.67
69239;BME280;56349;51.816;-0.026;2023-04-28T12:02:26;100489.96;;;28.53;27.44
69239;BME280;56349;51.816;-0.026;2023-04-28T12:04:49;100490.64;;;28.61;27.40
69239;BME280;56349;51.816;-0.026;2023-04-28T12:07:16;100491.89;;;28.64;27.43
69239;BME280;56349;51.816;-0.026;2023-04-28T12:09:43;100498.79;;;28.68;27.46
69239;BME280;56349;51.816;-0.026;2023-04-28T12:12:08;100502.06;;;28.46;27.50
69239;BME280;56349;51.816;-0.026;2023-04-28T12:16:58;100516.29;;;28.83;27.53
69239;BME280;56349;51.816;-0.026;2023-04-28T12:19:23;100522.02;;;28.89;27.52
69239;BME280;56349;51.816;-0.026;2023-04-28T12:21:58;100524.23;;;28.94;27.52
69239;BME280;56349;51.816;-0.026;2023-04-28T12:24:17;100529.18;;;28.99;27.53
69239;BME280;56349;51.816;-0.026;2023-04-28T12:26:40;100529.39;;;29.06;27.53
69239;BME280;56349;51.816;-0.026;2023-04-28T12:29:07;100536.33;;;29.15;27.50
69239;BME280;56349;51.816;-0.026;2023-04-28T12:33:58;100536.66;;;28.80;27.48
69239;BME280;56349;51.816;-0.026;2023-04-28T12:36:24;100539.02;;;29.35;27.43
69239;BME280;56349;51.816;-0.026;2023-04-28T12:38:50;100542.75;;;29.13;27.39
69239;BME280;56349;51.816;-0.026;2023-04-28T12:41:16;100547.57;;;29.13;27.14
69239;BME280;56349;51.816;-0.026;2023-04-28T12:43:42;100552.34;;;29.07;27.25
69239;BME280;56349;51.816;-0.026;2023-04-28T12:46:08;100556.32;;;29.08;27.35
69239;BME280;56349;51.816;-0.026;2023-04-28T12:48:34;100556.50;;;29.37;27.39
69239;BME280;56349;51.816;-0.026;2023-04-28T12:50:59;100562.54;;;29.42;27.38
69239;BME280;56349;51.816;-0.026;2023-04-28T12:53:25;100565.55;;;29.21;27.38
69239;BME280;56349;51.816;-0.026;2023-04-28T12:55:51;100566.12;;;29.28;27.36
69239;BME280;56349;51.816;-0.026;2023-04-28T12:58:17;100574.60;;;29.38;27.32
69239;BME280;56349;51.816;-0.026;2023-04-28T13:00:43;100580.09;;;29.71;27.28
69239;BME280;56349;51.816;-0.026;2023-04-28T13:03:09;100583.99;;;29.55;27.22
69239;BME280;56349;51.816;-0.026;2023-04-28T13:05:35;100587.30;;;29.38;27.15
69239;BME280;56349;51.816;-0.026;2023-04-28T13:08:01;100592.27;;;29.43;27.15
69239;BME280;56349;51.816;-0.026;2023-04-28T13:10:26;100594.40;;;29.71;27.13
69239;BME280;56349;51.816;-0.026;2023-04-28T13:12:52;100601.69;;;29.56;27.11
69239;BME280;56349;51.816;-0.026;2023-04-28T13:15:18;100596.14;;;29.62;27.08
69239;BME280;56349;51.816;-0.026;2023-04-28T13:17:43;100595.14;;;29.65;27.08
69239;BME280;56349;51.816;-0.026;2023-04-28T13:20:10;100598.20;;;29.71;27.07
69239;BME280;56349;51.816;-0.026;2023-04-28T13:22:35;100601.54;;;29.79;27.03